Time;durP1;ratioP1;P1;durP2;ratioP2;P2;SDS_P1;SDS_P2;PMS_P1;PMS_P2;Temp;Humidity;BMP_temperature;BMP_pressure;BME280_temperature;BME280_humidity;BME280_pressure;Samples;Min_cycle;Max_cycle;Signal;HPM_P1;HPM_P2
2023/09/23 00:01:44;;;;;;;0.98;0.40;;;12.60;99.90;;;;;;4880359;29;20161;-70
2023/09/23 00:04:10;;;;;;;0.38;0.25;;;12.60;99.90;;;;;;4858935;29;20124;-70
2023/09/23 00:06:35;;;;;;;0.57;0.28;;;12.40;99.90;;;;;;4880355;29;20122;-70
2023/09/23 00:09:03;;;;;;;0.55;0.38;;;12.30;99.90;;;;;;4863793;29;20034;-70
2023/09/23 00:11:28;;;;;;;3.67;0.50;;;12.20;99.90;;;;;;4870843;29;20033;-70
2023/09/23 00:13:54;;;;;;;1.33;0.43;;;12.20;99.90;;;;;;4858887;29;20045;-70
2023/09/23 00:16:21;;;;;;;1.90;0.70;;;12.20;99.90;;;;;;4872586;29;20026;-70
2023/09/23 00:18:47;;;;;;;0.73;0.35;;;12.20;99.90;;;;;;4880652;29;20412;-70
2023/09/23 00:21:13;;;;;;;0.40;0.40;;;12.20;99.90;;;;;;4881435;29;20037;-70
2023/09/23 00:23:40;;;;;;;0.63;0.43;;;12.20;99.90;;;;;;4888360;29;20033;-69
2023/09/23 00:26:11;;;;;;;2.83;1.13;;;12.20;99.90;;;;;;4859644;29;20443;-69
2023/09/23 00:28:37;;;;;;;1.23;0.47;;;12.30;99.90;;;;;;4872617;29;20120;-70
2023/09/23 00:31:14;;;;;;;0.88;0.52;;;12.30;99.90;;;;;;4883561;29;20485;-70
2023/09/23 00:33:41;;;;;;;2.38;0.40;;;12.20;99.90;;;;;;4875138;29;20124;-70
2023/09/23 00:36:08;;;;;;;0.35;0.20;;;12.30;99.90;;;;;;4862371;29;20041;-70
2023/09/23 00:38:35;;;;;;;1.25;0.30;;;12.30;99.90;;;;;;4891643;29;20057;-70
2023/09/23 00:41:08;;;;;;;0.55;0.30;;;12.30;99.90;;;;;;4878770;29;20037;-70
2023/09/23 00:43:37;;;;;;;2.92;0.63;;;12.30;99.90;;;;;;4889373;29;20168;-70
2023/09/23 00:46:05;;;;;;;0.57;0.40;;;12.30;99.90;;;;;;4875620;29;20045;-69
2023/09/23 00:48:38;;;;;;;0.63;0.55;;;12.30;99.90;;;;;;4891711;29;20034;-69
2023/09/23 00:51:04;;;;;;;0.57;0.30;;;12.20;99.90;;;;;;4886156;29;20052;-70
2023/09/23 00:53:31;;;;;;;0.35;0.35;;;12.20;99.90;;;;;;4891319;29;20024;-70
2023/09/23 00:56:00;;;;;;;0.70;0.40;;;12.20;99.90;;;;;;4886670;29;20033;-70
2023/09/23 01:17:15;;;;;;;0.45;0.38;;;11.90;99.90;;;;;;4861333;29;20037;-70
2023/09/23 01:19:41;;;;;;;2.28;0.95;;;11.90;99.90;;;;;;4861363;29;20061;-71
2023/09/23 01:22:08;;;;;;;0.38;0.38;;;11.90;99.90;;;;;;4882626;29;20467;-71
2023/09/23 01:24:34;;;;;;;3.17;0.45;;;11.80;99.90;;;;;;4860791;29;20032;-69
2023/09/23 01:27:00;;;;;;;0.47;0.47;;;11.90;99.90;;;;;;4861208;29;20482;-69
2023/09/23 01:29:26;;;;;;;0.30;0.20;;;11.80;99.90;;;;;;4861274;29;20029;-70
2023/09/23 01:32:31;;;;;;;0.30;0.30;;;11.80;99.90;;;;;;4861172;29;20121;-69
2023/09/23 01:34:57;;;;;;;1.35;0.73;;;11.70;99.90;;;;;;4868478;29;20569;-69
2023/09/23 01:37:23;;;;;;;0.80;0.40;;;11.60;99.90;;;;;;4875211;29;20033;-69
2023/09/23 01:39:52;;;;;;;0.75;0.52;;;11.50;99.90;;;;;;4860935;29;20025;-69
2023/09/23 01:42:18;;;;;;;0.75;0.65;;;11.50;99.90;;;;;;4867576;29;20041;-69
2023/09/23 01:44:45;;;;;;;1.30;0.82;;;11.50;99.90;;;;;;4889850;29;20037;-70
2023/09/23 01:47:11;;;;;;;0.50;0.35;;;11.50;99.90;;;;;;4860494;29;20064;-69
2023/09/23 01:49:37;;;;;;;3.97;0.38;;;11.40;99.90;;;;;;4860944;29;20468;-69
2023/09/23 01:52:03;;;;;;;0.88;0.52;;;11.50;99.90;;;;;;4860547;29;20082;-70
2023/09/23 01:54:29;;;;;;;2.83;0.85;;;11.40;99.90;;;;;;4860442;29;20026;-69
2023/09/23 01:56:55;;;;;;;0.60;0.43;;;11.40;99.90;;;;;;4874209;29;20053;-69
2023/09/23 01:59:21;;;;;;;0.28;0.22;;;11.50;99.90;;;;;;4860668;29;20034;-69
2023/09/23 02:01:46;;;;;;;1.63;0.80;;;11.50;99.90;;;;;;4882120;29;20135;-69
2023/09/23 02:04:12;;;;;;;0.75;0.55;;;11.50;99.90;;;;;;4859981;29;20538;-70
2023/09/23 02:06:42;;;;;;;1.35;0.50;;;11.50;99.90;;;;;;4860228;29;20240;-69
2023/09/23 02:09:09;;;;;;;0.75;0.50;;;11.60;99.90;;;;;;4860338;29;20542;-69
2023/09/23 02:11:37;;;;;;;0.73;0.32;;;11.60;99.90;;;;;;4881392;29;20030;-69
2023/09/23 02:14:06;;;;;;;0.22;0.15;;;11.60;99.90;;;;;;4889891;29;20124;-69
2023/09/23 02:16:33;;;;;;;3.50;0.50;;;11.60;99.90;;;;;;4881588;29;20057;-69
2023/09/23 02:18:59;;;;;;;4.78;0.75;;;11.60;99.90;;;;;;4890146;29;20710;-69
2023/09/23 02:21:27;;;;;;;0.20;0.20;;;11.50;99.90;;;;;;4881669;29;20053;-69
2023/09/23 02:23:55;;;;;;;0.35;0.25;;;11.50;99.90;;;;;;4889103;29;20045;-69
2023/09/23 02:26:22;;;;;;;1.48;0.30;;;11.50;99.90;;;;;;4881222;29;20524;-69
2023/09/23 02:28:48;;;;;;;0.73;0.60;;;11.50;99.90;;;;;;4860156;29;20025;-69
2023/09/23 02:31:15;;;;;;;0.57;0.47;;;11.50;99.90;;;;;;4860363;29;20112;-69
2023/09/23 02:33:43;;;;;;;3.75;0.28;;;11.40;99.90;;;;;;4859545;29;20029;-68
2023/09/23 02:36:09;;;;;;;1.73;0.80;;;11.40;99.90;;;;;;4860405;29;20043;-68
2023/09/23 02:38:35;;;;;;;0.75;0.50;;;11.30;99.90;;;;;;4860155;29;20025;-68
2023/09/23 02:41:06;;;;;;;0.55;0.40;;;11.30;99.90;;;;;;4884561;29;20502;-68
2023/09/23 02:43:32;;;;;;;0.60;0.25;;;11.30;99.90;;;;;;4873406;29;20512;-69
2023/09/23 02:46:00;;;;;;;1.08;0.45;;;11.30;99.90;;;;;;4884461;29;20061;-68
2023/09/23 02:48:26;;;;;;;0.55;0.40;;;11.20;99.90;;;;;;4873686;29;20089;-68
2023/09/23 02:50:53;;;;;;;1.83;1.33;;;11.10;99.90;;;;;;4884819;29;20029;-70
2023/09/23 02:53:19;;;;;;;2.67;0.70;;;11.10;99.90;;;;;;4859441;29;20033;-69
2023/09/23 02:55:51;;;;;;;1.10;0.63;;;11.10;99.90;;;;;;4888438;29;20042;-69
2023/09/23 02:58:18;;;;;;;0.57;0.38;;;11.00;99.90;;;;;;4859906;29;20041;-69
2023/09/23 03:00:57;;;;;;;1.20;0.60;;;11.00;99.90;;;;;;4859495;29;20045;-69
2023/09/23 03:03:24;;;;;;;1.67;0.88;;;11.00;99.90;;;;;;4873980;29;20108;-69
2023/09/23 03:05:57;;;;;;;0.63;0.35;;;11.00;99.90;;;;;;4884797;29;20041;-69
2023/09/23 03:08:26;;;;;;;1.02;0.45;;;10.90;99.90;;;;;;4879724;29;20036;-69
2023/09/23 03:10:52;;;;;;;8.68;0.50;;;10.90;99.90;;;;;;4888479;29;20025;-69
2023/09/23 03:13:23;;;;;;;3.33;1.17;;;10.90;99.90;;;;;;4863126;29;20021;-69
2023/09/23 03:16:04;;;;;;;1.60;0.98;;;10.90;99.90;;;;;;4886396;29;20029;-68
2023/09/23 03:18:54;;;;;;;2.92;1.02;;;10.90;99.90;;;;;;4871469;29;20078;-69
2023/09/23 03:21:20;;;;;;;1.00;0.63;;;10.90;99.90;;;;;;4870279;29;20062;-69
2023/09/23 03:23:46;;;;;;;0.75;0.60;;;10.90;99.90;;;;;;4888053;29;20041;-69
2023/09/23 03:26:12;;;;;;;2.08;0.70;;;10.90;99.90;;;;;;4881110;29;20046;-69
2023/09/23 03:28:39;;;;;;;1.85;0.90;;;10.90;99.90;;;;;;4858500;29;20112;-69
2023/09/23 03:31:08;;;;;;;0.63;0.45;;;10.90;99.90;;;;;;4872355;29;20072;-69
2023/09/23 03:33:35;;;;;;;4.47;0.70;;;11.00;99.90;;;;;;4858558;29;20493;-69
2023/09/23 03:36:01;;;;;;;1.80;0.85;;;11.00;99.90;;;;;;4883197;29;20499;-69
2023/09/23 03:38:32;;;;;;;2.28;1.05;;;11.10;99.90;;;;;;4888328;29;20026;-69
2023/09/23 03:40:59;;;;;;;0.30;0.30;;;11.00;99.90;;;;;;4866015;29;20520;-69
2023/09/23 03:43:25;;;;;;;4.40;0.85;;;11.00;99.90;;;;;;4872406;29;20278;-69
2023/09/23 03:45:52;;;;;;;2.50;0.65;;;11.00;99.90;;;;;;4858562;29;20037;-69
2023/09/23 03:48:19;;;;;;;0.95;0.50;;;11.00;99.90;;;;;;4860553;29;20422;-69
2023/09/23 03:50:51;;;;;;;2.17;1.00;;;10.90;99.90;;;;;;4869488;29;20124;-69
2023/09/23 03:53:21;;;;;;;2.42;0.93;;;11.00;99.90;;;;;;4873325;29;20395;-69
2023/09/23 03:55:49;;;;;;;3.28;0.85;;;11.00;99.90;;;;;;4858287;29;20580;-70
2023/09/23 03:58:17;;;;;;;2.33;0.80;;;10.90;99.90;;;;;;4858366;29;20030;-70
2023/09/23 04:00:44;;;;;;;1.17;0.68;;;10.80;99.90;;;;;;4857558;29;20037;-70
2023/09/23 04:03:10;;;;;;;1.70;0.93;;;10.80;99.90;;;;;;4876471;29;20478;-70
2023/09/23 04:05:36;;;;;;;1.23;0.50;;;10.80;99.90;;;;;;4889791;29;20037;-70
2023/09/23 04:08:02;;;;;;;3.17;1.05;;;10.70;99.90;;;;;;4865131;29;20450;-70
2023/09/23 04:10:28;;;;;;;1.90;0.77;;;10.70;99.90;;;;;;4865330;29;20028;-70
2023/09/23 04:12:55;;;;;;;0.95;0.60;;;10.60;99.90;;;;;;4866299;29;20048;-70
2023/09/23 04:15:24;;;;;;;1.42;0.80;;;10.60;99.90;;;;;;4893225;29;20033;-70
2023/09/23 04:17:50;;;;;;;1.00;0.60;;;10.60;99.90;;;;;;4866449;29;20033;-70
2023/09/23 04:20:16;;;;;;;1.15;0.77;;;10.60;99.90;;;;;;4893638;29;20057;-70
2023/09/23 04:22:42;;;;;;;4.30;1.10;;;10.60;99.90;;;;;;4867594;29;20033;-70
2023/09/23 04:25:10;;;;;;;2.35;0.50;;;10.60;99.90;;;;;;4892189;29;20048;-70
2023/09/23 04:27:37;;;;;;;1.17;0.77;;;10.60;99.90;;;;;;4868334;29;20029;-70
2023/09/23 04:30:11;;;;;;;1.17;0.57;;;10.50;99.90;;;;;;4861946;29;20037;-70
2023/09/23 04:32:40;;;;;;;2.00;0.82;;;10.50;99.90;;;;;;4875930;29;20036;-70
2023/09/23 04:35:12;;;;;;;1.77;0.85;;;10.60;99.90;;;;;;4891649;29;20378;-70
2023/09/23 04:37:39;;;;;;;3.03;0.60;;;10.50;99.90;;;;;;4867935;29;20478;-70
2023/09/23 04:40:10;;;;;;;0.60;0.52;;;10.40;99.90;;;;;;4862154;29;20113;-70
2023/09/23 04:42:42;;;;;;;1.45;0.63;;;10.40;99.90;;;;;;4866492;29;20414;-70
2023/09/23 04:45:09;;;;;;;;;;;10.40;99.90;;;;;;4862035;29;20033;-70
2023/09/23 04:47:36;;;;;;;0.75;0.47;;;10.30;99.90;;;;;;4882209;29;19916;-70
2023/09/23 04:50:05;;;;;;;1.15;0.65;;;10.30;99.90;;;;;;4891237;29;20053;-70
2023/09/23 04:52:35;;;;;;;0.82;0.68;;;10.30;99.90;;;;;;4882536;29;20647;-70
2023/09/23 04:55:01;;;;;;;0.98;0.88;;;10.30;99.90;;;;;;4890897;29;20038;-70
2023/09/23 04:57:27;;;;;;;1.35;0.70;;;10.30;99.90;;;;;;4868930;29;20040;-71
2023/09/23 04:59:54;;;;;;;0.88;0.63;;;10.30;99.90;;;;;;4894017;29;20029;-70
2023/09/23 05:02:21;;;;;;;1.10;0.73;;;10.30;99.90;;;;;;4882576;29;20037;-70
2023/09/23 05:04:48;;;;;;;1.23;0.60;;;10.30;99.90;;;;;;4890581;29;20047;-70
2023/09/23 05:07:14;;;;;;;3.28;0.93;;;10.20;99.90;;;;;;4889381;29;20032;-69
2023/09/23 05:09:41;;;;;;;0.88;0.55;;;10.20;99.90;;;;;;4891028;29;20029;-69
2023/09/23 05:12:10;;;;;;;6.28;0.73;;;10.20;99.90;;;;;;4889388;29;20029;-69
2023/09/23 05:14:37;;;;;;;6.88;1.67;;;10.20;99.90;;;;;;4864072;29;20116;-69
2023/09/23 05:17:04;;;;;;;1.63;0.77;;;10.20;99.90;;;;;;4876298;29;20076;-69
2023/09/23 05:19:33;;;;;;;1.23;0.90;;;10.20;99.90;;;;;;4868145;29;20054;-69
2023/09/23 05:21:59;;;;;;;1.55;0.85;;;10.20;99.90;;;;;;4860959;29;20120;-69
2023/09/23 05:24:26;;;;;;;1.88;1.00;;;10.20;99.90;;;;;;4860416;29;20041;-69
2023/09/23 05:26:55;;;;;;;1.70;0.75;;;10.20;99.90;;;;;;4860785;29;20029;-69
2023/09/23 05:29:22;;;;;;;4.68;1.40;;;10.20;99.90;;;;;;4860589;29;20094;-69
2023/09/23 05:31:48;;;;;;;2.80;1.08;;;10.20;99.90;;;;;;4860930;29;20090;-70
2023/09/23 05:34:15;;;;;;;1.33;0.90;;;10.30;99.90;;;;;;4860241;29;20109;-70
2023/09/23 05:36:44;;;;;;;8.20;1.60;;;10.40;99.90;;;;;;4860617;29;20033;-70
2023/09/23 05:39:13;;;;;;;4.18;1.17;;;10.40;99.90;;;;;;4890072;29;20049;-70
2023/09/23 05:41:39;;;;;;;4.55;1.30;;;10.40;99.90;;;;;;4860571;29;20038;-70
2023/09/23 05:44:07;;;;;;;2.10;1.20;;;10.40;99.90;;;;;;4860093;29;20042;-70
2023/09/23 05:46:35;;;;;;;2.10;1.35;;;10.40;99.90;;;;;;4860441;29;20687;-70
2023/09/23 05:49:02;;;;;;;4.43;2.35;;;10.40;99.90;;;;;;4860677;29;20562;-70
2023/09/23 05:51:28;;;;;;;8.35;2.08;;;10.40;99.90;;;;;;4860366;29;20029;-70
2023/09/23 05:53:55;;;;;;;3.08;1.38;;;10.40;99.90;;;;;;4889897;29;20394;-70
2023/09/23 05:56:20;;;;;;;3.05;1.48;;;10.50;99.90;;;;;;4859789;29;20040;-70
2023/09/23 05:58:46;;;;;;;6.43;1.88;;;10.50;99.90;;;;;;4860183;29;20453;-71
2023/09/23 06:01:13;;;;;;;3.08;1.27;;;10.60;99.90;;;;;;4885031;29;20585;-70
2023/09/23 06:03:41;;;;;;;2.85;1.30;;;10.60;99.90;;;;;;4869030;29;20499;-69
2023/09/23 06:06:06;;;;;;;2.80;1.60;;;10.60;99.90;;;;;;4851896;29;20455;-68
2023/09/23 06:08:32;;;;;;;1.95;1.05;;;10.60;99.90;;;;;;4863597;29;20057;-71
2023/09/23 06:11:04;;;;;;;3.65;1.27;;;10.60;99.90;;;;;;4868510;29;20037;-69
2023/09/23 06:13:32;;;;;;;2.38;1.50;;;10.60;99.90;;;;;;4852289;29;20033;-69
2023/09/23 06:16:05;;;;;;;2.33;1.13;;;10.60;99.90;;;;;;4884514;29;20160;-69
2023/09/23 06:18:31;;;;;;;1.70;1.10;;;10.60;99.90;;;;;;4873582;29;20037;-69
2023/09/23 06:21:01;;;;;;;2.50;1.38;;;10.60;99.90;;;;;;4859725;29;20037;-66
2023/09/23 06:23:28;;;;;;;1.58;0.98;;;10.60;99.90;;;;;;4888175;29;20037;-67
2023/09/23 06:26:00;;;;;;;2.22;1.08;;;10.70;99.90;;;;;;4859600;29;20126;-68
2023/09/23 06:28:26;;;;;;;1.83;1.00;;;10.60;99.90;;;;;;4859387;29;20034;-68
2023/09/23 06:30:52;;;;;;;2.05;1.33;;;10.70;99.90;;;;;;4884617;29;20030;-69
2023/09/23 06:33:19;;;;;;;4.50;1.75;;;10.70;99.90;;;;;;4875339;29;20483;-69
2023/09/23 06:35:45;;;;;;;3.03;1.20;;;10.80;99.90;;;;;;4883427;29;20066;-69
2023/09/23 06:38:14;;;;;;;1.75;1.05;;;10.80;99.90;;;;;;4856484;29;20049;-70
2023/09/23 06:40:40;;;;;;;3.75;1.38;;;10.90;99.90;;;;;;4866570;29;20033;-70
2023/09/23 06:43:06;;;;;;;1.40;0.80;;;10.90;99.90;;;;;;4856006;29;20093;-71
2023/09/23 06:45:32;;;;;;;3.47;1.20;;;10.90;99.90;;;;;;4875537;29;20033;-70
2023/09/23 06:47:58;;;;;;;1.63;1.02;;;11.00;99.90;;;;;;4858877;29;20064;-69
2023/09/23 06:50:23;;;;;;;3.15;1.30;;;11.20;99.90;;;;;;4859632;29;20072;-71
2023/09/23 06:52:49;;;;;;;2.80;0.95;;;11.20;99.90;;;;;;4859280;29;20032;-70
2023/09/23 06:55:16;;;;;;;3.08;1.63;;;11.30;99.90;;;;;;4858583;29;20037;-71
2023/09/23 06:57:42;;;;;;;2.58;0.80;;;11.30;99.90;;;;;;4858901;29;20072;-71
2023/09/23 07:00:08;;;;;;;1.73;1.05;;;11.40;99.90;;;;;;4858749;29;20073;-72
2023/09/23 07:02:35;;;;;;;3.47;1.30;;;11.50;99.90;;;;;;4872639;29;20040;-70
2023/09/23 07:05:02;;;;;;;1.88;0.98;;;11.50;99.90;;;;;;4858185;29;20499;-70
2023/09/23 07:07:28;;;;;;;1.27;0.70;;;11.60;99.90;;;;;;4872585;29;20181;-71
2023/09/23 07:09:54;;;;;;;1.48;0.98;;;11.70;99.90;;;;;;4864829;29;20041;-71
2023/09/23 07:12:20;;;;;;;2.10;0.73;;;11.80;99.90;;;;;;4866009;29;20029;-71
2023/09/23 07:14:46;;;;;;;1.45;0.52;;;11.90;99.90;;;;;;4861524;29;20102;-70
2023/09/23 07:17:12;;;;;;;1.70;0.70;;;11.90;99.90;;;;;;4856409;29;20613;-71
2023/09/23 07:19:38;;;;;;;0.10;0.10;;;12.00;99.90;;;;;;4858189;29;20065;-71
2023/09/23 07:22:04;;;;;;;3.10;0.70;;;12.10;99.90;;;;;;4856887;29;20387;-71
2023/09/23 07:24:33;;;;;;;0.35;0.17;;;12.10;99.90;;;;;;4870854;29;20030;-71
2023/09/23 07:26:59;;;;;;;0.73;0.30;;;12.20;99.90;;;;;;4868462;29;20092;-71
2023/09/23 07:29:25;;;;;;;0.65;0.40;;;12.20;99.90;;;;;;4857529;29;20049;-71
2023/09/23 07:31:54;;;;;;;1.55;0.52;;;12.20;99.90;;;;;;4859024;29;20037;-71
2023/09/23 07:34:20;;;;;;;0.60;0.40;;;12.40;99.90;;;;;;4871822;29;20034;-71
2023/09/23 07:36:46;;;;;;;0.38;0.38;;;12.40;99.90;;;;;;4858716;29;20045;-71
2023/09/23 07:39:12;;;;;;;15.32;0.88;;;12.40;99.90;;;;;;4858086;29;20398;-60
2023/09/23 07:41:39;;;;;;;1.15;0.52;;;12.60;99.90;;;;;;4853143;29;20037;-60
2023/09/23 07:44:05;;;;;;;0.10;0.10;;;12.60;99.90;;;;;;4857414;29;20038;-60
2023/09/23 07:46:31;;;;;;;3.10;1.33;;;12.70;99.90;;;;;;4867388;29;20034;-58
2023/09/23 07:48:56;;;;;;;0.55;0.40;;;12.80;99.90;;;;;;4849881;29;20113;-58
2023/09/23 07:51:22;;;;;;;0.77;0.30;;;12.70;99.90;;;;;;4857544;29;20042;-58
2023/09/23 07:53:51;;;;;;;0.50;0.43;;;12.70;99.90;;;;;;4857487;29;20025;-58
2023/09/23 07:56:16;;;;;;;2.50;0.55;;;12.80;99.90;;;;;;4859507;29;20037;-58
2023/09/23 07:58:42;;;;;;;1.92;0.50;;;12.80;99.90;;;;;;4862532;29;20037;-60
2023/09/23 08:01:08;;;;;;;0.80;0.30;;;12.80;99.90;;;;;;4865277;29;20490;-59
2023/09/23 08:03:34;;;;;;;2.53;0.50;;;13.00;99.90;;;;;;4858120;29;20116;-57
2023/09/23 08:05:59;;;;;;;0.82;0.32;;;13.10;99.90;;;;;;4857446;29;20037;-69
2023/09/23 08:08:25;;;;;;;0.52;0.30;;;13.10;99.90;;;;;;4872342;29;20499;-72
2023/09/23 08:10:51;;;;;;;4.20;1.70;;;13.20;99.90;;;;;;4853859;29;20037;-72
2023/09/23 08:13:19;;;;;;;19.38;6.72;;;13.30;99.90;;;;;;4857798;29;20044;-71
2023/09/23 08:15:45;;;;;;;3.53;1.90;;;13.40;99.90;;;;;;4874549;29;20060;-71
2023/09/23 08:18:12;;;;;;;0.63;0.52;;;13.40;99.90;;;;;;4866376;29;20093;-70
2023/09/23 08:20:39;;;;;;;1.58;0.95;;;13.40;99.90;;;;;;4882112;29;20125;-70
2023/09/23 08:23:05;;;;;;;1.05;0.50;;;13.40;99.90;;;;;;4853788;29;20045;-70
2023/09/23 08:25:32;;;;;;;0.88;0.40;;;13.50;99.90;;;;;;4864444;29;20034;-70
2023/09/23 08:27:58;;;;;;;3.22;0.55;;;13.60;99.90;;;;;;4854070;29;20136;-71
2023/09/23 08:30:25;;;;;;;0.75;0.40;;;13.60;99.90;;;;;;4864605;29;20037;-70
2023/09/23 08:32:50;;;;;;;1.08;0.40;;;13.60;99.90;;;;;;4880215;29;20059;-70
2023/09/23 08:35:16;;;;;;;0.70;0.50;;;13.70;99.90;;;;;;4859823;29;20487;-70
2023/09/23 08:37:45;;;;;;;1.27;0.30;;;13.70;99.90;;;;;;4877919;29;20116;-70
2023/09/23 08:40:12;;;;;;;1.83;0.50;;;13.80;99.90;;;;;;4866835;29;20042;-71
2023/09/23 08:42:39;;;;;;;1.77;0.70;;;13.90;99.90;;;;;;4876762;29;20032;-71
2023/09/23 08:45:09;;;;;;;1.45;0.40;;;14.10;99.90;;;;;;4874985;29;20443;-71
2023/09/23 08:47:37;;;;;;;0.17;0.15;;;14.30;99.90;;;;;;4872135;29;20030;-71
2023/09/23 08:50:10;;;;;;;0.38;0.30;;;14.40;99.90;;;;;;4867690;29;20475;-71
2023/09/23 08:52:36;;;;;;;3.70;0.43;;;14.40;99.90;;;;;;4852695;29;20112;-71
2023/09/23 08:55:04;;;;;;;0.82;0.30;;;14.50;99.90;;;;;;4870508;29;20045;-71
2023/09/23 08:57:31;;;;;;;1.02;0.20;;;14.60;99.90;;;;;;4847211;29;20033;-70
2023/09/23 08:59:57;;;;;;;8.23;0.65;;;14.70;99.90;;;;;;4871936;29;20514;-70
2023/09/23 09:02:29;;;;;;;1.95;0.57;;;14.80;99.90;;;;;;4859782;29;20045;-71
2023/09/23 09:04:55;;;;;;;0.30;0.20;;;14.90;99.90;;;;;;4874325;29;20130;-71
2023/09/23 09:07:39;;;;;;;0.55;0.28;;;14.90;99.90;;;;;;4875232;29;20028;-71
2023/09/23 09:10:06;;;;;;;2.13;0.30;;;14.90;99.90;;;;;;4860942;29;20034;-71
2023/09/23 09:12:33;;;;;;;3.55;0.35;;;15.10;99.90;;;;;;4882703;29;20030;-70
2023/09/23 09:14:58;;;;;;;0.13;0.13;;;15.20;99.90;;;;;;4870587;29;20660;-70
2023/09/23 09:17:24;;;;;;;3.17;0.35;;;15.30;99.90;;;;;;4882230;29;20111;-70
2023/09/23 09:19:50;;;;;;;0.68;0.35;;;15.30;99.90;;;;;;4859600;29;20063;-70
2023/09/23 09:22:19;;;;;;;0.55;0.35;;;15.40;99.90;;;;;;4876245;29;20387;-58
2023/09/23 09:24:46;;;;;;;1.20;0.28;;;15.50;99.90;;;;;;4869646;29;20132;-59
2023/09/23 09:27:14;;;;;;;2.25;0.52;;;15.60;99.90;;;;;;4868624;29;20025;-54
2023/09/23 09:29:43;;;;;;;0.45;0.30;;;15.70;99.90;;;;;;4881919;29;20108;-53
2023/09/23 09:32:10;;;;;;;0.20;0.20;;;15.90;99.90;;;;;;4882154;29;20040;-57
2023/09/23 09:34:45;;;;;;;0.93;0.32;;;16.10;99.90;;;;;;4874278;29;20062;-58
2023/09/23 09:37:15;;;;;;;0.45;0.22;;;16.20;99.90;;;;;;4867906;29;20041;-58
2023/09/23 09:39:54;;;;;;;2.55;0.52;;;16.20;99.90;;;;;;4873728;29;20034;-55
2023/09/23 09:42:32;;;;;;;1.02;0.50;;;16.30;99.90;;;;;;4860332;29;20037;-58
2023/09/23 09:44:58;;;;;;;0.63;0.20;;;16.50;99.90;;;;;;4856343;29;20137;-58
2023/09/23 09:47:24;;;;;;;0.28;0.20;;;16.70;99.90;;;;;;4860548;29;20112;-70
2023/09/23 09:49:54;;;;;;;1.55;0.30;;;16.80;99.90;;;;;;4874185;29;20085;-71
2023/09/23 09:52:26;;;;;;;2.05;0.50;;;16.80;99.90;;;;;;4873723;29;20030;-70
2023/09/23 09:54:58;;;;;;;4.43;0.98;;;16.80;99.90;;;;;;4873754;29;20068;-71
2023/09/23 09:57:28;;;;;;;0.60;0.50;;;16.80;99.90;;;;;;4874187;29;20101;-71
2023/09/23 10:00:15;;;;;;;0.82;0.40;;;17.10;99.90;;;;;;4873653;29;20037;-71
2023/09/23 10:02:43;;;;;;;0.95;0.30;;;17.40;99.90;;;;;;4853830;29;20037;-71
2023/09/23 10:05:17;;;;;;;2.10;0.45;;;17.60;99.90;;;;;;4857982;29;20038;-70
2023/09/23 10:07:55;;;;;;;1.15;0.40;;;17.80;99.90;;;;;;4861437;29;20033;-71
2023/09/23 10:10:31;;;;;;;2.50;0.60;;;17.70;99.90;;;;;;4867023;29;20068;-70
2023/09/23 10:13:11;;;;;;;3.20;0.80;;;17.50;99.90;;;;;;4872887;29;20410;-71
2023/09/23 10:15:38;;;;;;;0.73;0.30;;;17.80;99.90;;;;;;4860088;29;20399;-70
2023/09/23 10:18:16;;;;;;;1.90;0.35;;;18.00;99.90;;;;;;4858305;29;20177;-70
2023/09/23 10:20:51;;;;;;;2.05;0.68;;;18.00;99.90;;;;;;4862175;29;20082;-70
2023/09/23 10:23:20;;;;;;;0.52;0.40;;;17.50;99.90;;;;;;4858756;29;20048;-70
2023/09/23 10:25:52;;;;;;;3.00;0.40;;;17.80;99.90;;;;;;4859107;29;20085;-71
2023/09/23 10:28:28;;;;;;;1.13;0.55;;;17.80;99.90;;;;;;4873751;29;20044;-71
2023/09/23 10:31:04;;;;;;;0.77;0.60;;;17.90;99.90;;;;;;4868169;29;20467;-70
2023/09/23 10:33:32;;;;;;;3.05;0.60;;;17.40;99.90;;;;;;4865200;29;20428;-71
2023/09/23 10:35:58;;;;;;;4.65;0.47;;;17.40;99.90;;;;;;4873026;29;20447;-70
2023/09/23 10:38:34;;;;;;;0.47;0.47;;;17.40;99.90;;;;;;4858515;29;20036;-70
2023/09/23 10:41:02;;;;;;;1.63;0.40;;;17.20;99.90;;;;;;4859573;29;20045;-70
2023/09/23 10:43:29;;;;;;;1.05;0.43;;;17.20;99.90;;;;;;4866028;29;20061;-70
2023/09/23 10:45:58;;;;;;;0.90;0.30;;;17.30;99.90;;;;;;4867518;29;20155;-71
2023/09/23 10:48:25;;;;;;;2.05;0.32;;;17.50;99.90;;;;;;4857368;29;20041;-71
2023/09/23 10:50:51;;;;;;;0.68;0.38;;;17.70;99.90;;;;;;4870329;29;20538;-70
2023/09/23 10:53:21;;;;;;;2.00;0.60;;;17.50;99.90;;;;;;4875647;29;20037;-70
2023/09/23 10:55:49;;;;;;;0.45;0.28;;;17.60;99.90;;;;;;4858491;29;20037;-70
2023/09/23 10:58:15;;;;;;;0.30;0.20;;;17.60;99.90;;;;;;4857744;29;20034;-70
2023/09/23 11:00:41;;;;;;;1.08;0.50;;;17.90;99.90;;;;;;4867241;29;20097;-70
2023/09/23 11:03:15;;;;;;;0.10;0.10;;;17.80;99.90;;;;;;4871843;29;20033;-70
2023/09/23 11:05:43;;;;;;;6.40;0.52;;;18.20;99.90;;;;;;4866416;29;20038;-70
2023/09/23 11:08:12;;;;;;;1.55;0.63;;;18.20;99.90;;;;;;4871753;29;20029;-70
2023/09/23 11:10:39;;;;;;;1.90;0.15;;;18.20;99.90;;;;;;4869875;29;20025;-70
2023/09/23 11:13:06;;;;;;;0.65;0.15;;;18.30;99.90;;;;;;4886557;29;20029;-70
2023/09/23 11:15:32;;;;;;;2.67;0.75;;;18.60;99.90;;;;;;4856540;29;20073;-70
2023/09/23 11:17:58;;;;;;;0.82;0.38;;;18.80;99.90;;;;;;4858905;29;20049;-70
2023/09/23 11:20:32;;;;;;;0.40;0.20;;;18.60;99.90;;;;;;4867648;29;20112;-70
2023/09/23 11:23:03;;;;;;;1.30;0.20;;;18.30;99.90;;;;;;4879942;29;20173;-70
2023/09/23 11:25:30;;;;;;;0.60;0.30;;;18.30;99.90;;;;;;4853636;29;20372;-71
2023/09/23 11:28:02;;;;;;;0.98;0.40;;;18.10;99.90;;;;;;4870118;29;20729;-71
2023/09/23 11:30:29;;;;;;;1.08;0.43;;;18.10;99.90;;;;;;4867277;29;20033;-70
2023/09/23 11:32:55;;;;;;;0.63;0.20;;;18.10;99.90;;;;;;4872614;29;20025;-70
2023/09/23 11:35:24;;;;;;;0.30;0.10;;;18.00;99.90;;;;;;4867277;29;20038;-70
2023/09/23 11:37:51;;;;;;;0.75;0.35;;;18.20;99.90;;;;;;4872702;29;20025;-71
2023/09/23 11:40:18;;;;;;;1.65;0.32;;;18.10;99.90;;;;;;4866936;29;20082;-71
2023/09/23 11:42:44;;;;;;;3.83;0.65;;;18.10;99.90;;;;;;4858541;29;20121;-71
2023/09/23 11:45:10;;;;;;;0.35;0.15;;;18.20;99.90;;;;;;4862827;29;20112;-71
2023/09/23 11:47:38;;;;;;;1.30;0.25;;;18.10;99.90;;;;;;4858417;29;20033;-71
2023/09/23 11:50:06;;;;;;;0.47;0.20;;;18.20;99.90;;;;;;4868736;29;20036;-71
2023/09/23 11:52:33;;;;;;;0.65;0.20;;;18.20;99.90;;;;;;4867451;29;20574;-71
2023/09/23 11:54:59;;;;;;;2.55;0.52;;;18.40;99.90;;;;;;4870245;29;20034;-71
2023/09/23 11:57:26;;;;;;;1.08;0.50;;;18.30;99.90;;;;;;4857261;29;20041;-71
2023/09/23 11:59:52;;;;;;;1.75;0.30;;;18.40;99.90;;;;;;4858453;29;20030;-71
2023/09/23 12:02:19;;;;;;;1.10;0.60;;;18.30;99.90;;;;;;4872414;29;20036;-71
2023/09/23 12:04:46;;;;;;;4.70;1.08;;;18.50;99.90;;;;;;4856816;29;20114;-71
2023/09/23 12:07:17;;;;;;;0.40;0.10;;;18.70;99.90;;;;;;4858012;29;20033;-71
2023/09/23 12:09:44;;;;;;;0.88;0.30;;;19.10;99.90;;;;;;4872057;29;20105;-71
2023/09/23 12:12:12;;;;;;;0.30;0.20;;;18.80;99.40;;;;;;4872228;29;20030;-71
2023/09/23 12:14:42;;;;;;;2.38;0.75;;;18.80;99.90;;;;;;4871940;29;20040;-71
2023/09/23 12:17:15;;;;;;;0.20;0.10;;;18.60;99.90;;;;;;4857977;29;20394;-71
2023/09/23 12:19:44;;;;;;;0.52;0.43;;;18.50;99.90;;;;;;4871685;29;20061;-71
2023/09/23 12:22:12;;;;;;;0.52;0.17;;;18.50;99.90;;;;;;4854286;29;20030;-71
2023/09/23 12:24:39;;;;;;;5.78;0.30;;;18.70;99.90;;;;;;4870593;29;20030;-71
2023/09/23 12:27:05;;;;;;;1.10;0.50;;;18.90;99.20;;;;;;4858797;29;20029;-71
2023/09/23 12:29:30;;;;;;;0.85;0.10;;;19.00;99.10;;;;;;4875560;29;20109;-71
2023/09/23 12:31:56;;;;;;;1.33;0.47;;;19.10;99.50;;;;;;4857200;29;20451;-71
2023/09/23 12:34:22;;;;;;;1.75;0.30;;;19.00;99.70;;;;;;4859584;29;20037;-71
2023/09/23 12:36:49;;;;;;;6.32;0.45;;;18.90;99.60;;;;;;4856689;29;20088;-71
2023/09/23 12:39:16;;;;;;;2.90;0.50;;;19.50;99.90;;;;;;4861513;29;20481;-71
2023/09/23 12:41:42;;;;;;;0.88;0.22;;;19.90;96.70;;;;;;4861464;29;20511;-71
2023/09/23 12:44:08;;;;;;;0.68;0.30;;;19.60;97.70;;;;;;4874923;29;20064;-71
2023/09/23 12:46:34;;;;;;;0.60;0.30;;;19.30;98.00;;;;;;4856523;29;20467;-71
2023/09/23 12:49:00;;;;;;;1.05;0.47;;;19.30;98.10;;;;;;4875216;29;20033;-71
2023/09/23 12:51:30;;;;;;;0.20;0.10;;;19.30;98.00;;;;;;4870138;29;20050;-71
2023/09/23 12:53:56;;;;;;;0.20;0.10;;;19.60;98.10;;;;;;4886061;29;20519;-71
2023/09/23 12:56:22;;;;;;;1.42;0.82;;;20.00;97.00;;;;;;4880651;29;20026;-71
2023/09/23 12:58:48;;;;;;;0.60;0.45;;;20.30;96.50;;;;;;4869597;29;20161;-71
2023/09/23 13:01:15;;;;;;;1.15;0.40;;;20.30;94.50;;;;;;4865129;29;20033;-71
2023/09/23 13:03:40;;;;;;;0.22;0.20;;;19.60;95.30;;;;;;4880386;29;20044;-71
2023/09/23 13:06:07;;;;;;;3.92;0.28;;;19.50;95.70;;;;;;4873969;29;20049;-71
2023/09/23 13:08:33;;;;;;;4.97;0.68;;;19.50;97.00;;;;;;4872484;29;20041;-71
2023/09/23 13:11:02;;;;;;;0.57;0.30;;;19.50;96.50;;;;;;4857219;29;20049;-71